createdAt,value
2022-11-19T00:01:06.606Z,52.75
2022-11-19T00:03:35.141Z,59.45
2022-11-19T00:06:22.404Z,56.67
2022-11-19T00:08:49.435Z,66.63
2022-11-19T00:11:41.225Z,61.22
2022-11-19T00:14:13.627Z,64.25
2022-11-19T00:16:41.066Z,61.10
2022-11-19T00:19:07.884Z,58.05
2022-11-19T00:21:34.407Z,59.17
2022-11-19T00:24:00.846Z,53.17
2022-11-19T00:26:27.397Z,56.80
2022-11-19T00:28:54.741Z,53.05
2022-11-19T00:31:21.180Z,57.53
2022-11-19T00:33:49.435Z,61.78
2022-11-19T00:36:17.038Z,56.08
2022-11-19T00:38:43.754Z,54.92
2022-11-19T00:41:10.988Z,58.65
2022-11-19T00:43:50.136Z,55.92
2022-11-19T00:46:24.842Z,61.42
2022-11-19T00:48:53.724Z,58.05
2022-11-19T00:51:21.826Z,52.10
2022-11-19T00:53:48.344Z,53.58
2022-11-19T00:56:17.559Z,51.40
2022-11-19T00:58:44.172Z,52.03
2022-11-19T01:01:11.632Z,57.30
2022-11-19T01:03:39.586Z,51.03
2022-11-19T01:06:06.587Z,46.58
2022-11-19T01:08:32.953Z,41.25
2022-11-19T01:11:13.672Z,45.15
2022-11-19T01:13:40.217Z,40.17
2022-11-19T01:16:12.708Z,38.97
2022-11-19T01:18:40.833Z,36.13
2022-11-19T01:21:08.766Z,36.58
2022-11-19T01:23:35.248Z,31.58
2022-11-19T01:26:02.261Z,32.70
2022-11-19T01:28:28.805Z,30.92
2022-11-19T01:30:55.380Z,34.42
2022-11-19T01:33:22.602Z,29.55
2022-11-19T01:36:00.494Z,29.27
2022-11-19T01:38:27.472Z,28.52
2022-11-19T01:40:54.826Z,28.55
2022-11-19T01:43:38.943Z,25.38
2022-11-19T01:46:05.398Z,27.73
2022-11-19T01:48:34.197Z,25.80
2022-11-19T01:51:13.530Z,25.88
2022-11-19T01:53:40.867Z,24.10
2022-11-19T01:56:08.962Z,25.85
2022-11-19T01:58:39.790Z,23.60
2022-11-19T02:01:08.137Z,22.55
2022-11-19T02:03:35.203Z,23.58
2022-11-19T02:06:03.209Z,22.90
2022-11-19T02:08:36.934Z,22.90
2022-11-19T02:11:12.757Z,23.02
2022-11-19T02:13:46.065Z,23.52
2022-11-19T02:16:31.559Z,20.40
2022-11-19T02:19:17.050Z,19.58
2022-11-19T02:22:18.142Z,20.30
2022-11-19T02:24:54.926Z,21.88
2022-11-19T02:27:30.318Z,18.65
2022-11-19T02:30:34.788Z,21.75
2022-11-19T02:33:05.913Z,18.17
2022-11-19T02:35:40.398Z,18.27
2022-11-19T02:38:27.630Z,19.80
2022-11-19T02:41:23.064Z,20.00
2022-11-19T02:44:18.074Z,18.30
2022-11-19T02:46:48.852Z,19.35
2022-11-19T02:49:19.297Z,17.42
2022-11-19T02:51:47.538Z,21.20
2022-11-19T02:54:17.382Z,18.98
2022-11-19T02:56:55.450Z,20.48
2022-11-19T02:59:49.525Z,20.58
2022-11-19T03:05:06.334Z,23.02
2022-11-19T03:07:33.160Z,18.88
2022-11-19T03:10:03.253Z,19.70
2022-11-19T03:12:49.396Z,20.15
2022-11-19T03:15:58.081Z,20.73
2022-11-19T03:18:43.738Z,19.17
2022-11-19T03:21:21.408Z,16.88
2022-11-19T03:23:57.088Z,19.40
2022-11-19T03:26:42.231Z,19.63
2022-11-19T03:29:12.285Z,20.13
2022-11-19T03:31:41.657Z,19.55
2022-11-19T03:34:14.626Z,21.42
2022-11-19T03:36:43.541Z,17.58
2022-11-19T03:39:13.930Z,18.58
2022-11-19T03:41:42.256Z,19.20
2022-11-19T03:44:18.308Z,20.60
2022-11-19T03:46:47.482Z,19.77
2022-11-19T03:49:15.677Z,18.15
2022-11-19T03:51:49.875Z,18.42
2022-11-19T03:54:16.674Z,17.50
2022-11-19T03:56:45.553Z,19.73
2022-11-19T03:59:13.105Z,19.73
2022-11-19T04:01:39.986Z,16.95
2022-11-19T04:04:25.306Z,17.75
2022-11-19T04:06:51.736Z,19.27
2022-11-19T04:09:18.459Z,16.58
2022-11-19T04:14:10.935Z,18.75
2022-11-19T04:16:37.426Z,17.40
2022-11-19T04:19:03.820Z,17.40
2022-11-19T04:21:30.254Z,18.83
2022-11-19T04:23:56.825Z,16.52
2022-11-19T04:26:23.232Z,16.98
2022-11-19T04:28:49.626Z,16.92
2022-11-19T04:31:17.995Z,14.73
2022-11-19T04:33:44.696Z,18.10
2022-11-19T04:36:11.106Z,16.70
2022-11-19T04:38:37.460Z,17.05
2022-11-19T04:41:04.137Z,17.33
2022-11-19T04:43:30.539Z,19.08
2022-11-19T04:45:57.022Z,17.45
2022-11-19T04:48:23.422Z,13.57
2022-11-19T04:50:49.815Z,14.70
2022-11-19T04:53:16.242Z,16.30
2022-11-19T04:55:42.803Z,15.63
2022-11-19T04:58:09.299Z,16.13
2022-11-19T05:00:35.726Z,15.85
2022-11-19T05:03:02.184Z,14.20
2022-11-19T05:05:28.596Z,18.77
2022-11-19T05:07:55.122Z,16.60
2022-11-19T05:10:21.626Z,15.50
2022-11-19T05:12:48.033Z,14.20
2022-11-19T05:15:14.442Z,16.25
2022-11-19T05:17:40.865Z,16.58
2022-11-19T05:20:08.176Z,14.93
2022-11-19T05:22:34.692Z,17.77
2022-11-19T05:25:01.068Z,15.38
2022-11-19T05:27:27.474Z,15.45
2022-11-19T05:29:53.881Z,17.90
2022-11-19T05:32:20.350Z,16.25
2022-11-19T05:34:46.808Z,13.73
2022-11-19T05:37:13.178Z,16.05
2022-11-19T05:39:39.566Z,17.88
2022-11-19T05:42:06.064Z,12.38
2022-11-19T05:44:32.437Z,15.55
2022-11-19T05:46:59.818Z,15.15
2022-11-19T05:49:26.467Z,16.67
2022-11-19T05:51:52.868Z,15.45
2022-11-19T05:54:19.383Z,14.05
2022-11-19T05:56:45.955Z,16.50
2022-11-19T05:59:12.345Z,15.10
2022-11-19T06:01:38.734Z,17.75
2022-11-19T06:04:05.218Z,18.50
2022-11-19T06:06:31.620Z,17.90
2022-11-19T06:08:58.000Z,17.60
2022-11-19T06:11:42.914Z,15.20
2022-11-19T06:14:09.518Z,16.20
2022-11-19T06:16:35.936Z,14.13
2022-11-19T06:19:02.334Z,16.08
2022-11-19T06:21:28.762Z,18.02
2022-11-19T06:23:55.186Z,17.70
2022-11-19T06:26:27.171Z,17.20
2022-11-19T06:28:54.648Z,16.35
2022-11-19T06:31:21.625Z,17.88
2022-11-19T06:33:48.844Z,16.95
2022-11-19T06:36:15.352Z,17.75
2022-11-19T06:38:42.009Z,16.23
2022-11-19T06:41:08.416Z,18.00
2022-11-19T06:43:34.823Z,18.65
2022-11-19T06:46:01.199Z,19.40
2022-11-19T06:48:27.766Z,18.83
2022-11-19T06:50:54.186Z,18.55
2022-11-19T06:53:20.628Z,15.35
2022-11-19T06:55:47.095Z,22.58
2022-11-19T06:58:14.669Z,25.73
2022-11-19T07:00:44.095Z,21.45
2022-11-19T07:03:10.528Z,18.48
2022-11-19T07:05:36.901Z,19.52
2022-11-19T07:08:05.962Z,19.98
2022-11-19T07:10:37.540Z,19.55
2022-11-19T07:13:03.990Z,17.92
2022-11-19T07:15:30.362Z,19.80
2022-11-19T07:17:58.001Z,21.58
2022-11-19T07:20:25.554Z,22.10
2022-11-19T07:22:57.702Z,20.67
2022-11-19T07:27:53.667Z,17.67
2022-11-19T07:30:20.232Z,17.70
2022-11-19T07:32:46.673Z,17.25
2022-11-19T07:35:13.126Z,17.60
2022-11-19T07:37:39.506Z,18.40
2022-11-19T07:40:06.464Z,20.17
2022-11-19T07:42:50.796Z,19.48
2022-11-19T07:45:19.459Z,22.10
2022-11-19T07:47:46.117Z,20.95
2022-11-19T07:50:12.997Z,18.02
2022-11-19T07:52:39.750Z,18.17
2022-11-19T07:55:06.866Z,21.23
2022-11-19T07:57:33.516Z,21.27
2022-11-19T08:00:00.006Z,18.25
2022-11-19T08:02:26.552Z,19.83
2022-11-19T08:04:53.069Z,20.30
2022-11-19T08:07:19.557Z,23.25
2022-11-19T08:09:46.032Z,23.58
2022-11-19T08:12:12.402Z,19.65
2022-11-19T08:14:38.775Z,18.95
2022-11-19T08:17:23.756Z,24.33
2022-11-19T08:19:50.175Z,24.85
2022-11-19T08:22:16.530Z,19.38
2022-11-19T08:24:42.915Z,19.65
2022-11-19T08:27:09.282Z,21.13
2022-11-19T08:29:35.716Z,19.92
2022-11-19T08:32:02.122Z,23.48
2022-11-19T08:34:28.737Z,23.52
2022-11-19T08:36:55.157Z,21.55
2022-11-19T08:39:21.651Z,19.65
2022-11-19T08:42:06.791Z,21.63
2022-11-19T08:44:33.174Z,22.77
2022-11-19T08:46:59.546Z,20.90
2022-11-19T08:49:25.975Z,21.25
2022-11-19T08:51:52.617Z,24.13
2022-11-19T08:54:19.427Z,23.55
2022-11-19T08:56:46.107Z,22.52
2022-11-19T08:59:12.529Z,20.65
2022-11-19T09:01:39.317Z,22.05
2022-11-19T09:04:05.782Z,30.65
2022-11-19T09:06:35.295Z,25.73
2022-11-19T09:09:03.308Z,21.42
2022-11-19T09:11:29.845Z,23.05
2022-11-19T09:13:59.061Z,22.00
2022-11-19T09:16:25.629Z,24.90
2022-11-19T09:18:52.463Z,22.05
2022-11-19T09:21:19.031Z,19.13
2022-11-19T09:23:45.402Z,20.40
2022-11-19T09:26:17.573Z,19.92
2022-11-19T09:28:44.733Z,25.70
2022-11-19T09:31:14.659Z,19.98
2022-11-19T09:33:42.432Z,20.10
2022-11-19T09:36:10.839Z,21.13
2022-11-19T09:38:37.559Z,21.13
2022-11-19T09:41:25.512Z,20.25
2022-11-19T09:44:30.417Z,21.15
2022-11-19T09:47:29.067Z,18.90
2022-11-19T09:50:22.376Z,18.05
2022-11-19T09:52:56.950Z,18.17
2022-11-19T09:55:30.511Z,20.90
2022-11-19T09:57:58.767Z,21.73
2022-11-19T10:00:29.117Z,18.60
2022-11-19T10:02:57.915Z,19.60
2022-11-19T10:05:44.792Z,21.55
2022-11-19T10:08:41.918Z,20.48
2022-11-19T10:11:33.076Z,18.50
2022-11-19T10:14:21.687Z,18.45
2022-11-19T10:17:03.313Z,21.35
2022-11-19T10:20:08.620Z,19.75
2022-11-19T10:22:40.962Z,18.33
2022-11-19T10:25:21.721Z,17.25
2022-11-19T10:27:55.161Z,16.58
2022-11-19T10:30:25.042Z,16.48
2022-11-19T10:33:04.053Z,20.52
2022-11-19T10:35:36.626Z,20.38
2022-11-19T10:38:07.425Z,16.30
2022-11-19T10:40:42.825Z,18.95
2022-11-19T10:43:30.421Z,17.35
2022-11-19T10:46:00.222Z,16.33
2022-11-19T10:48:59.202Z,18.67
2022-11-19T10:51:33.479Z,16.48
2022-11-19T10:54:04.964Z,16.02
2022-11-19T10:56:39.958Z,15.40
2022-11-19T10:59:18.609Z,16.70
2022-11-19T11:01:48.896Z,19.30
2022-11-19T11:04:19.637Z,13.52
2022-11-19T11:07:03.598Z,16.58
2022-11-19T11:12:31.571Z,16.30
2022-11-19T11:15:13.694Z,15.75
2022-11-19T11:17:42.555Z,16.85
2022-11-19T11:20:18.275Z,17.45
2022-11-19T11:22:48.889Z,17.90
2022-11-19T11:25:25.255Z,15.48
2022-11-19T11:28:05.315Z,14.50
2022-11-19T11:30:31.898Z,15.88
2022-11-19T11:33:17.583Z,17.15
2022-11-19T11:35:45.667Z,20.25
2022-11-19T11:38:13.528Z,18.10
2022-11-19T11:40:40.049Z,18.30
2022-11-19T11:43:06.601Z,14.65
2022-11-19T11:45:35.699Z,17.52
2022-11-19T11:48:19.077Z,16.92
2022-11-19T11:50:46.468Z,14.18
2022-11-19T11:53:16.286Z,15.52
2022-11-19T11:55:43.605Z,15.73
2022-11-19T11:58:32.120Z,16.20
2022-11-19T12:01:21.092Z,13.90
2022-11-19T12:03:55.727Z,18.92
2022-11-19T12:06:33.021Z,16.17
2022-11-19T12:09:18.492Z,14.48
2022-11-19T12:12:11.045Z,16.20
2022-11-19T12:14:53.320Z,15.45
2022-11-19T12:17:28.848Z,14.35
2022-11-19T12:20:26.405Z,14.57
2022-11-19T12:23:22.959Z,16.75
2022-11-19T12:26:15.395Z,13.18
2022-11-19T12:29:02.196Z,13.43
2022-11-19T12:31:50.520Z,14.35
2022-11-19T12:34:42.171Z,14.32
2022-11-19T12:37:23.244Z,12.95
2022-11-19T12:39:58.641Z,16.30
2022-11-19T12:42:41.007Z,13.80
2022-11-19T12:45:22.838Z,15.55
2022-11-19T12:48:10.675Z,17.02
2022-11-19T12:50:51.543Z,13.80
2022-11-19T12:53:45.050Z,13.23
2022-11-19T12:56:30.481Z,12.55
2022-11-19T12:59:05.898Z,12.57
2022-11-19T13:01:36.788Z,12.48
2022-11-19T13:04:18.373Z,13.80
2022-11-19T13:06:53.561Z,13.63
2022-11-19T13:10:18.670Z,12.23
2022-11-19T13:12:50.206Z,13.30
2022-11-19T13:15:26.357Z,13.88
2022-11-19T13:17:56.420Z,13.57
2022-11-19T13:20:28.539Z,14.93
2022-11-19T13:22:59.673Z,14.35
2022-11-19T13:25:31.810Z,15.20
2022-11-19T13:28:02.561Z,18.25
2022-11-19T13:30:32.074Z,15.10
2022-11-19T13:33:24.784Z,15.70
2022-11-19T13:36:07.302Z,14.35
2022-11-19T13:38:48.720Z,16.10
2022-11-19T13:42:04.344Z,16.15
2022-11-19T13:44:41.443Z,16.73
2022-11-19T13:47:15.086Z,16.50
2022-11-19T13:50:07.639Z,17.30
2022-11-19T13:52:39.375Z,15.13
2022-11-19T13:55:23.093Z,16.70
2022-11-19T13:57:49.886Z,17.42
2022-11-19T14:00:28.595Z,17.88
2022-11-19T14:03:20.341Z,19.50
2022-11-19T14:06:12.387Z,18.55
2022-11-19T14:08:46.622Z,18.63
2022-11-19T14:11:22.096Z,19.92
2022-11-19T14:14:32.111Z,20.92
2022-11-19T14:17:47.434Z,17.77
2022-11-19T14:21:07.735Z,20.52
2022-11-19T14:24:05.695Z,20.58
2022-11-19T14:26:40.960Z,20.05
2022-11-19T14:29:27.280Z,22.17
2022-11-19T14:32:18.538Z,20.05
2022-11-19T14:35:09.625Z,21.85
2022-11-19T14:37:45.532Z,19.50
2022-11-19T14:40:17.831Z,23.08
2022-11-19T14:43:18.296Z,21.20
2022-11-19T14:46:10.857Z,18.63
2022-11-19T14:48:40.278Z,20.83
2022-11-19T14:51:32.729Z,21.88
2022-11-19T14:54:31.540Z,21.20
2022-11-19T14:57:06.014Z,25.58
2022-11-19T15:02:10.485Z,25.23
2022-11-19T15:04:41.979Z,19.50
2022-11-19T15:07:16.141Z,24.95
2022-11-19T15:10:04.378Z,21.15
2022-11-19T15:12:42.974Z,24.92
2022-11-19T15:15:41.361Z,25.17
2022-11-19T15:18:26.562Z,24.38
2022-11-19T15:20:56.169Z,26.20
2022-11-19T15:23:56.045Z,24.05
2022-11-19T15:26:37.716Z,24.58
2022-11-19T15:29:15.270Z,23.15
2022-11-19T15:32:23.617Z,28.17
2022-11-19T15:35:18.346Z,29.58
2022-11-19T15:38:18.497Z,30.65
2022-11-19T15:40:49.507Z,28.63
2022-11-19T15:43:22.420Z,28.30
2022-11-19T15:46:07.421Z,27.92
2022-11-19T15:48:56.136Z,29.13
2022-11-19T15:51:23.325Z,26.80
2022-11-19T15:54:00.514Z,29.98
2022-11-19T15:56:31.970Z,30.67
2022-11-19T15:58:59.569Z,28.30
2022-11-19T16:01:26.270Z,25.67
2022-11-19T16:03:53.863Z,27.13
2022-11-19T16:06:25.166Z,26.75
2022-11-19T16:08:54.415Z,30.05
2022-11-19T16:11:42.284Z,30.42
2022-11-19T16:14:38.569Z,29.13
2022-11-19T16:17:43.027Z,31.00
2022-11-19T16:20:09.741Z,30.33
2022-11-19T16:23:07.999Z,29.90
2022-11-19T16:25:37.679Z,28.92
2022-11-19T16:28:10.123Z,27.35
2022-11-19T16:30:50.327Z,50.13
2022-11-19T16:33:19.072Z,36.58
2022-11-19T16:35:51.252Z,30.55
2022-11-19T16:38:28.650Z,34.28
2022-11-19T16:41:14.254Z,30.27
2022-11-19T16:43:44.685Z,35.45
2022-11-19T16:46:18.243Z,35.88
2022-11-19T16:51:38.609Z,32.47
2022-11-19T16:54:10.629Z,33.10
2022-11-19T16:56:43.999Z,33.70
2022-11-19T16:59:19.763Z,30.02
2022-11-19T17:01:52.516Z,29.95
2022-11-19T17:04:19.682Z,36.00
2022-11-19T17:06:47.263Z,34.35
2022-11-19T17:09:31.022Z,39.70
2022-11-19T17:15:30.448Z,42.13
2022-11-19T17:18:15.512Z,40.40
2022-11-19T17:20:44.814Z,46.72
2022-11-19T17:23:16.110Z,48.33
2022-11-19T17:25:46.476Z,59.20
2022-11-19T17:28:19.697Z,45.40
2022-11-19T17:30:49.442Z,42.85
2022-11-19T17:33:17.863Z,41.72
2022-11-19T17:35:46.549Z,37.60
2022-11-19T17:38:27.712Z,37.75
2022-11-19T17:40:57.143Z,34.08
2022-11-19T17:43:44.844Z,41.70
2022-11-19T17:46:11.364Z,36.25
2022-11-19T17:48:40.948Z,33.92
2022-11-19T17:51:11.470Z,35.40
2022-11-19T17:53:37.832Z,37.60
2022-11-19T17:56:04.767Z,39.45
2022-11-19T17:58:31.493Z,59.65
2022-11-19T18:00:57.869Z,44.42
2022-11-19T18:03:24.242Z,36.75
2022-11-19T18:05:50.761Z,40.63
2022-11-19T18:08:17.370Z,38.55
2022-11-19T18:10:46.368Z,33.30
2022-11-19T18:13:16.570Z,33.20
2022-11-19T18:15:42.977Z,37.30
2022-11-19T18:18:09.444Z,34.92
2022-11-19T18:20:35.899Z,35.70
2022-11-19T18:23:02.339Z,42.60
2022-11-19T18:25:28.758Z,41.50
2022-11-19T18:27:55.308Z,41.78
2022-11-19T18:30:22.114Z,45.67
2022-11-19T18:32:48.586Z,43.70
2022-11-19T18:35:18.560Z,42.88
2022-11-19T18:37:45.673Z,42.28
2022-11-19T18:40:13.776Z,45.17
2022-11-19T18:43:00.508Z,43.25
2022-11-19T18:45:27.576Z,38.03
2022-11-19T18:47:54.002Z,44.75
2022-11-19T18:50:24.351Z,41.78
2022-11-19T18:52:53.212Z,49.15
2022-11-19T18:55:19.601Z,40.78
2022-11-19T18:57:46.104Z,48.72
2022-11-19T19:00:13.333Z,50.47
2022-11-19T19:02:39.786Z,44.58
2022-11-19T19:05:06.600Z,45.50
2022-11-19T19:07:33.173Z,57.15
2022-11-19T19:09:59.623Z,48.53
2022-11-19T19:12:28.947Z,48.55
2022-11-19T19:14:57.076Z,44.10
2022-11-19T19:17:26.802Z,43.42
2022-11-19T19:19:53.860Z,38.05
2022-11-19T19:22:20.691Z,38.75
2022-11-19T19:24:48.343Z,39.80
2022-11-19T19:27:18.397Z,42.63
2022-11-19T19:29:49.193Z,37.35
2022-11-19T19:32:17.145Z,47.72
2022-11-19T19:34:43.522Z,45.25
2022-11-19T19:37:09.930Z,34.55
2022-11-19T19:39:36.375Z,34.88
2022-11-19T19:42:02.792Z,36.35
2022-11-19T19:44:29.230Z,37.80
2022-11-19T19:46:55.622Z,39.45
2022-11-19T19:49:22.529Z,40.63
2022-11-19T19:51:49.166Z,41.55
2022-11-19T19:54:15.925Z,47.03
2022-11-19T19:56:42.831Z,47.00
2022-11-19T19:59:12.352Z,46.85
2022-11-19T20:01:38.830Z,42.78
2022-11-19T20:04:07.031Z,38.28
2022-11-19T20:06:35.365Z,41.22
2022-11-19T20:09:08.219Z,41.88
2022-11-19T20:11:48.157Z,38.20
2022-11-19T20:14:14.605Z,46.78
2022-11-19T20:16:41.613Z,42.47
2022-11-19T20:19:14.049Z,46.58
2022-11-19T20:21:40.875Z,44.77
2022-11-19T20:24:12.104Z,43.80
2022-11-19T20:26:39.734Z,50.53
2022-11-19T20:29:06.999Z,48.17
2022-11-19T20:31:34.562Z,51.70
2022-11-19T20:34:03.520Z,46.08
2022-11-19T20:36:31.435Z,41.58
2022-11-19T20:38:58.795Z,40.45
2022-11-19T20:41:45.465Z,41.30
2022-11-19T20:44:19.966Z,38.50
2022-11-19T20:46:54.096Z,34.70
2022-11-19T20:49:23.834Z,40.45
2022-11-19T20:51:51.140Z,34.95
2022-11-19T20:54:18.977Z,38.53
2022-11-19T20:56:45.398Z,33.97
2022-11-19T20:59:12.668Z,30.70
2022-11-19T21:01:39.413Z,31.73
2022-11-19T21:04:06.150Z,33.08
2022-11-19T21:06:33.089Z,38.00
2022-11-19T21:08:59.593Z,43.25
2022-11-19T21:11:26.448Z,41.15
2022-11-19T21:13:53.001Z,40.45
2022-11-19T21:16:21.911Z,38.92
2022-11-19T21:18:48.403Z,42.45
2022-11-19T21:21:17.029Z,36.80
2022-11-19T21:23:43.643Z,38.42
2022-11-19T21:26:19.685Z,32.17
2022-11-19T21:28:51.883Z,33.60
2022-11-19T21:31:20.624Z,36.60
2022-11-19T21:33:47.075Z,34.95
2022-11-19T21:36:13.615Z,35.17
2022-11-19T21:38:40.551Z,38.38
2022-11-19T21:41:07.694Z,31.10
2022-11-19T21:43:35.181Z,33.35
2022-11-19T21:46:01.862Z,32.67
2022-11-19T21:48:28.452Z,32.63
2022-11-19T21:50:54.956Z,34.08
2022-11-19T21:53:21.878Z,30.92
2022-11-19T21:55:49.279Z,32.70
2022-11-19T21:58:16.106Z,31.80
2022-11-19T22:00:43.917Z,32.67
2022-11-19T22:03:10.568Z,33.63
2022-11-19T22:05:36.942Z,34.65
2022-11-19T22:08:03.456Z,28.25
2022-11-19T22:10:29.890Z,31.35
2022-11-19T22:12:59.477Z,24.17
2022-11-19T22:15:27.097Z,21.48
2022-11-19T22:17:53.579Z,26.75
2022-11-19T22:20:20.375Z,23.65
2022-11-19T22:22:46.999Z,23.88
2022-11-19T22:25:14.111Z,23.10
2022-11-19T22:27:41.704Z,24.80
2022-11-19T22:30:10.029Z,23.10
2022-11-19T22:32:36.565Z,27.77
2022-11-19T22:35:03.303Z,24.83
2022-11-19T22:37:29.713Z,39.40
2022-11-19T22:39:56.299Z,36.30
2022-11-19T22:42:22.664Z,40.97
2022-11-19T22:47:25.043Z,42.58
2022-11-19T22:49:51.985Z,44.55
2022-11-19T22:52:18.521Z,43.35
2022-11-19T22:54:44.954Z,43.35
2022-11-19T22:57:11.632Z,42.33
2022-11-19T22:59:38.126Z,39.38
2022-11-19T23:02:04.532Z,42.70
2022-11-19T23:04:30.948Z,44.67
2022-11-19T23:06:57.421Z,48.58
2022-11-19T23:09:24.088Z,47.60
2022-11-19T23:12:09.464Z,56.45
2022-11-19T23:14:36.072Z,55.35
2022-11-19T23:17:02.517Z,32.88
2022-11-19T23:19:29.052Z,36.03
2022-11-19T23:21:55.444Z,29.95
2022-11-19T23:24:21.890Z,26.65
2022-11-19T23:26:48.338Z,30.75
2022-11-19T23:29:14.861Z,23.02
2022-11-19T23:31:41.460Z,31.23
2022-11-19T23:34:08.370Z,31.27
2022-11-19T23:36:42.743Z,29.98
2022-11-19T23:39:15.173Z,28.73
2022-11-19T23:41:41.995Z,36.23
2022-11-19T23:44:08.882Z,29.08
2022-11-19T23:46:36.003Z,25.20
2022-11-19T23:49:03.743Z,25.20
2022-11-19T23:51:40.023Z,17.67
2022-11-19T23:54:06.647Z,19.13
2022-11-19T23:56:36.057Z,18.75
2022-11-19T23:59:04.794Z,22.70
